sensor_id;sensor_type;location;lat;lon;timestamp;P1;durP1;ratioP1;P2;durP2;ratioP2
62338;SDS011;48368;53.406;6.214;2022-11-20T00:00:10;9.88;;;6.40;;
62338;SDS011;48368;53.406;6.214;2022-11-20T00:02:36;12.00;;;7.05;;
62338;SDS011;48368;53.406;6.214;2022-11-20T00:05:02;10.85;;;6.43;;
62338;SDS011;48368;53.406;6.214;2022-11-20T00:07:28;12.23;;;6.90;;
62338;SDS011;48368;53.406;6.214;2022-11-20T00:09:53;11.68;;;6.63;;
62338;SDS011;48368;53.406;6.214;2022-11-20T00:12:19;15.07;;;7.47;;
62338;SDS011;48368;53.406;6.214;2022-11-20T00:14:45;12.60;;;6.82;;
62338;SDS011;48368;53.406;6.214;2022-11-20T00:17:10;12.30;;;7.22;;
62338;SDS011;48368;53.406;6.214;2022-11-20T00:19:36;14.23;;;6.85;;
62338;SDS011;48368;53.406;6.214;2022-11-20T00:22:02;12.50;;;7.65;;
62338;SDS011;48368;53.406;6.214;2022-11-20T00:24:27;13.63;;;7.70;;
62338;SDS011;48368;53.406;6.214;2022-11-20T00:26:53;13.10;;;8.00;;
62338;SDS011;48368;53.406;6.214;2022-11-20T00:29:18;16.10;;;8.88;;
62338;SDS011;48368;53.406;6.214;2022-11-20T00:31:44;15.55;;;8.18;;
62338;SDS011;48368;53.406;6.214;2022-11-20T00:34:10;13.52;;;8.00;;
62338;SDS011;48368;53.406;6.214;2022-11-20T00:36:35;15.75;;;8.57;;
62338;SDS011;48368;53.406;6.214;2022-11-20T00:39:01;13.63;;;7.70;;
62338;SDS011;48368;53.406;6.214;2022-11-20T00:41:27;15.98;;;9.13;;
62338;SDS011;48368;53.406;6.214;2022-11-20T00:43:54;16.13;;;8.63;;
62338;SDS011;48368;53.406;6.214;2022-11-20T00:46:21;13.07;;;8.00;;
62338;SDS011;48368;53.406;6.214;2022-11-20T00:48:48;14.57;;;8.10;;
62338;SDS011;48368;53.406;6.214;2022-11-20T00:51:15;15.20;;;8.35;;
62338;SDS011;48368;53.406;6.214;2022-11-20T00:53:42;15.05;;;7.85;;
62338;SDS011;48368;53.406;6.214;2022-11-20T00:56:13;16.33;;;8.60;;
62338;SDS011;48368;53.406;6.214;2022-11-20T00:58:41;12.85;;;7.70;;
62338;SDS011;48368;53.406;6.214;2022-11-20T01:01:11;16.25;;;9.13;;
62338;SDS011;48368;53.406;6.214;2022-11-20T01:03:42;14.80;;;8.55;;
62338;SDS011;48368;53.406;6.214;2022-11-20T01:06:11;14.52;;;7.82;;
62338;SDS011;48368;53.406;6.214;2022-11-20T01:08:38;14.02;;;8.23;;
62338;SDS011;48368;53.406;6.214;2022-11-20T01:11:05;12.77;;;8.13;;
62338;SDS011;48368;53.406;6.214;2022-11-20T01:13:33;13.05;;;7.72;;
62338;SDS011;48368;53.406;6.214;2022-11-20T01:16:12;14.43;;;8.43;;
62338;SDS011;48368;53.406;6.214;2022-11-20T01:21:13;12.80;;;7.57;;
62338;SDS011;48368;53.406;6.214;2022-11-20T01:23:45;13.73;;;8.05;;
62338;SDS011;48368;53.406;6.214;2022-11-20T01:26:13;14.23;;;8.18;;
62338;SDS011;48368;53.406;6.214;2022-11-20T01:28:41;17.77;;;9.10;;
62338;SDS011;48368;53.406;6.214;2022-11-20T01:31:15;15.05;;;8.60;;
62338;SDS011;48368;53.406;6.214;2022-11-20T01:33:49;14.82;;;8.77;;
62338;SDS011;48368;53.406;6.214;2022-11-20T01:36:18;14.88;;;8.63;;
62338;SDS011;48368;53.406;6.214;2022-11-20T01:38:46;16.65;;;8.60;;
62338;SDS011;48368;53.406;6.214;2022-11-20T01:41:12;13.93;;;8.27;;
62338;SDS011;48368;53.406;6.214;2022-11-20T01:44:00;16.25;;;8.30;;
62338;SDS011;48368;53.406;6.214;2022-11-20T01:46:26;14.35;;;8.65;;
62338;SDS011;48368;53.406;6.214;2022-11-20T01:49:02;13.00;;;8.13;;
62338;SDS011;48368;53.406;6.214;2022-11-20T01:51:55;15.15;;;7.32;;
62338;SDS011;48368;53.406;6.214;2022-11-20T01:54:43;15.52;;;8.35;;
62338;SDS011;48368;53.406;6.214;2022-11-20T01:57:13;15.73;;;8.88;;
62338;SDS011;48368;53.406;6.214;2022-11-20T01:59:47;16.00;;;8.70;;
62338;SDS011;48368;53.406;6.214;2022-11-20T02:02:19;14.80;;;8.82;;
62338;SDS011;48368;53.406;6.214;2022-11-20T02:04:46;14.40;;;8.80;;
62338;SDS011;48368;53.406;6.214;2022-11-20T02:07:14;14.57;;;8.10;;
62338;SDS011;48368;53.406;6.214;2022-11-20T02:09:40;14.30;;;7.80;;
62338;SDS011;48368;53.406;6.214;2022-11-20T02:12:06;14.02;;;8.65;;
62338;SDS011;48368;53.406;6.214;2022-11-20T02:14:52;14.48;;;8.55;;
62338;SDS011;48368;53.406;6.214;2022-11-20T02:17:17;14.57;;;9.20;;
62338;SDS011;48368;53.406;6.214;2022-11-20T02:19:43;13.35;;;8.02;;
62338;SDS011;48368;53.406;6.214;2022-11-20T02:24:46;15.75;;;8.30;;
62338;SDS011;48368;53.406;6.214;2022-11-20T02:27:14;15.48;;;8.38;;
62338;SDS011;48368;53.406;6.214;2022-11-20T02:32:21;15.00;;;8.43;;
62338;SDS011;48368;53.406;6.214;2022-11-20T02:34:47;14.27;;;8.88;;
62338;SDS011;48368;53.406;6.214;2022-11-20T02:37:12;14.27;;;8.43;;
62338;SDS011;48368;53.406;6.214;2022-11-20T02:39:39;12.95;;;7.78;;
62338;SDS011;48368;53.406;6.214;2022-11-20T02:42:06;14.75;;;8.23;;
62338;SDS011;48368;53.406;6.214;2022-11-20T02:44:31;14.13;;;8.32;;
62338;SDS011;48368;53.406;6.214;2022-11-20T02:46:57;15.15;;;8.73;;
62338;SDS011;48368;53.406;6.214;2022-11-20T02:49:24;13.68;;;7.90;;
62338;SDS011;48368;53.406;6.214;2022-11-20T02:51:50;13.88;;;8.00;;
62338;SDS011;48368;53.406;6.214;2022-11-20T02:54:15;16.38;;;8.32;;
62338;SDS011;48368;53.406;6.214;2022-11-20T02:56:41;13.70;;;7.88;;
62338;SDS011;48368;53.406;6.214;2022-11-20T02:59:07;12.57;;;7.40;;
62338;SDS011;48368;53.406;6.214;2022-11-20T03:01:33;13.63;;;7.95;;
62338;SDS011;48368;53.406;6.214;2022-11-20T03:03:58;11.15;;;7.32;;
62338;SDS011;48368;53.406;6.214;2022-11-20T03:06:24;14.00;;;8.20;;
62338;SDS011;48368;53.406;6.214;2022-11-20T03:08:50;13.63;;;8.18;;
62338;SDS011;48368;53.406;6.214;2022-11-20T03:11:16;15.63;;;8.27;;
62338;SDS011;48368;53.406;6.214;2022-11-20T03:13:42;16.30;;;8.90;;
62338;SDS011;48368;53.406;6.214;2022-11-20T03:16:12;16.45;;;8.75;;
62338;SDS011;48368;53.406;6.214;2022-11-20T03:18:39;15.18;;;9.40;;
62338;SDS011;48368;53.406;6.214;2022-11-20T03:21:06;17.02;;;9.30;;
62338;SDS011;48368;53.406;6.214;2022-11-20T03:23:32;15.23;;;9.70;;
62338;SDS011;48368;53.406;6.214;2022-11-20T03:26:08;18.27;;;9.55;;
62338;SDS011;48368;53.406;6.214;2022-11-20T03:28:34;15.13;;;9.05;;
62338;SDS011;48368;53.406;6.214;2022-11-20T03:31:04;15.07;;;8.90;;
62338;SDS011;48368;53.406;6.214;2022-11-20T03:33:34;15.68;;;8.70;;
62338;SDS011;48368;53.406;6.214;2022-11-20T03:36:01;15.50;;;8.45;;
62338;SDS011;48368;53.406;6.214;2022-11-20T03:38:31;16.25;;;9.35;;
62338;SDS011;48368;53.406;6.214;2022-11-20T03:40:58;15.90;;;9.60;;
62338;SDS011;48368;53.406;6.214;2022-11-20T03:43:28;15.20;;;8.77;;
62338;SDS011;48368;53.406;6.214;2022-11-20T03:45:54;15.57;;;9.05;;
62338;SDS011;48368;53.406;6.214;2022-11-20T03:48:19;14.50;;;9.18;;
62338;SDS011;48368;53.406;6.214;2022-11-20T03:50:45;15.48;;;9.02;;
62338;SDS011;48368;53.406;6.214;2022-11-20T03:53:12;15.73;;;9.02;;
62338;SDS011;48368;53.406;6.214;2022-11-20T03:55:39;15.75;;;9.80;;
62338;SDS011;48368;53.406;6.214;2022-11-20T03:58:04;14.98;;;9.23;;
62338;SDS011;48368;53.406;6.214;2022-11-20T04:00:30;15.10;;;8.68;;
62338;SDS011;48368;53.406;6.214;2022-11-20T04:02:59;13.75;;;8.20;;
62338;SDS011;48368;53.406;6.214;2022-11-20T04:05:28;13.80;;;8.68;;
62338;SDS011;48368;53.406;6.214;2022-11-20T04:07:54;13.27;;;8.57;;
62338;SDS011;48368;53.406;6.214;2022-11-20T04:10:19;12.48;;;7.75;;
62338;SDS011;48368;53.406;6.214;2022-11-20T04:12:45;15.07;;;9.02;;
62338;SDS011;48368;53.406;6.214;2022-11-20T04:15:11;14.45;;;8.02;;
62338;SDS011;48368;53.406;6.214;2022-11-20T04:17:37;20.88;;;8.65;;
62338;SDS011;48368;53.406;6.214;2022-11-20T04:20:03;17.25;;;8.50;;
62338;SDS011;48368;53.406;6.214;2022-11-20T04:22:29;13.45;;;8.52;;
62338;SDS011;48368;53.406;6.214;2022-11-20T04:24:54;15.18;;;8.38;;
62338;SDS011;48368;53.406;6.214;2022-11-20T04:27:20;13.73;;;8.40;;
62338;SDS011;48368;53.406;6.214;2022-11-20T04:29:46;15.10;;;8.35;;
62338;SDS011;48368;53.406;6.214;2022-11-20T04:32:11;14.32;;;8.05;;
62338;SDS011;48368;53.406;6.214;2022-11-20T04:34:37;14.70;;;8.35;;
62338;SDS011;48368;53.406;6.214;2022-11-20T04:37:02;15.15;;;8.27;;
62338;SDS011;48368;53.406;6.214;2022-11-20T04:39:28;15.43;;;8.43;;
62338;SDS011;48368;53.406;6.214;2022-11-20T04:41:54;14.82;;;8.38;;
62338;SDS011;48368;53.406;6.214;2022-11-20T04:44:38;13.30;;;7.82;;
62338;SDS011;48368;53.406;6.214;2022-11-20T04:47:04;13.35;;;7.50;;
62338;SDS011;48368;53.406;6.214;2022-11-20T04:49:29;14.98;;;7.65;;
62338;SDS011;48368;53.406;6.214;2022-11-20T04:51:56;14.50;;;8.45;;
62338;SDS011;48368;53.406;6.214;2022-11-20T04:54:22;14.57;;;8.18;;
62338;SDS011;48368;53.406;6.214;2022-11-20T04:56:48;14.90;;;8.45;;
62338;SDS011;48368;53.406;6.214;2022-11-20T04:59:14;14.77;;;8.02;;
62338;SDS011;48368;53.406;6.214;2022-11-20T05:01:40;15.30;;;8.25;;
62338;SDS011;48368;53.406;6.214;2022-11-20T05:04:06;13.85;;;7.97;;
62338;SDS011;48368;53.406;6.214;2022-11-20T05:06:31;14.48;;;8.68;;
62338;SDS011;48368;53.406;6.214;2022-11-20T05:08:57;14.00;;;7.63;;
62338;SDS011;48368;53.406;6.214;2022-11-20T05:11:23;16.50;;;8.43;;
62338;SDS011;48368;53.406;6.214;2022-11-20T05:13:49;14.27;;;7.78;;
62338;SDS011;48368;53.406;6.214;2022-11-20T05:16:17;14.88;;;7.85;;
62338;SDS011;48368;53.406;6.214;2022-11-20T05:18:48;11.95;;;7.95;;
62338;SDS011;48368;53.406;6.214;2022-11-20T05:21:15;14.00;;;7.95;;
62338;SDS011;48368;53.406;6.214;2022-11-20T05:23:41;13.27;;;8.55;;
62338;SDS011;48368;53.406;6.214;2022-11-20T05:26:11;13.70;;;8.48;;
62338;SDS011;48368;53.406;6.214;2022-11-20T05:28:42;16.30;;;8.73;;
62338;SDS011;48368;53.406;6.214;2022-11-20T05:31:09;15.73;;;8.68;;
62338;SDS011;48368;53.406;6.214;2022-11-20T05:33:36;13.40;;;8.15;;
62338;SDS011;48368;53.406;6.214;2022-11-20T05:36:04;15.30;;;8.68;;
62338;SDS011;48368;53.406;6.214;2022-11-20T05:38:30;15.77;;;8.25;;
62338;SDS011;48368;53.406;6.214;2022-11-20T05:41:18;14.00;;;8.30;;
62338;SDS011;48368;53.406;6.214;2022-11-20T05:43:45;15.18;;;7.93;;
62338;SDS011;48368;53.406;6.214;2022-11-20T05:46:13;13.32;;;7.93;;
62338;SDS011;48368;53.406;6.214;2022-11-20T05:48:40;12.95;;;8.23;;
62338;SDS011;48368;53.406;6.214;2022-11-20T05:51:08;14.20;;;7.60;;
62338;SDS011;48368;53.406;6.214;2022-11-20T05:53:35;15.43;;;8.38;;
62338;SDS011;48368;53.406;6.214;2022-11-20T05:56:02;14.30;;;7.97;;
62338;SDS011;48368;53.406;6.214;2022-11-20T05:58:31;13.70;;;8.00;;
62338;SDS011;48368;53.406;6.214;2022-11-20T06:01:04;14.25;;;8.23;;
62338;SDS011;48368;53.406;6.214;2022-11-20T06:03:32;13.73;;;8.45;;
62338;SDS011;48368;53.406;6.214;2022-11-20T06:05:59;14.65;;;8.73;;
62338;SDS011;48368;53.406;6.214;2022-11-20T06:08:25;13.95;;;7.93;;
62338;SDS011;48368;53.406;6.214;2022-11-20T06:10:50;13.23;;;8.23;;
62338;SDS011;48368;53.406;6.214;2022-11-20T06:13:16;13.52;;;8.02;;
62338;SDS011;48368;53.406;6.214;2022-11-20T06:15:42;14.35;;;8.75;;
62338;SDS011;48368;53.406;6.214;2022-11-20T06:18:14;14.25;;;7.82;;
62338;SDS011;48368;53.406;6.214;2022-11-20T06:20:40;14.05;;;9.07;;
62338;SDS011;48368;53.406;6.214;2022-11-20T06:23:06;16.00;;;8.68;;
62338;SDS011;48368;53.406;6.214;2022-11-20T06:25:32;14.68;;;8.15;;
62338;SDS011;48368;53.406;6.214;2022-11-20T06:27:57;15.43;;;8.20;;
62338;SDS011;48368;53.406;6.214;2022-11-20T06:30:23;14.25;;;8.20;;
62338;SDS011;48368;53.406;6.214;2022-11-20T06:32:48;14.77;;;8.40;;
62338;SDS011;48368;53.406;6.214;2022-11-20T06:35:14;13.25;;;7.47;;
62338;SDS011;48368;53.406;6.214;2022-11-20T06:37:40;13.40;;;8.15;;
62338;SDS011;48368;53.406;6.214;2022-11-20T06:40:05;14.50;;;8.25;;
62338;SDS011;48368;53.406;6.214;2022-11-20T06:42:32;13.77;;;8.15;;
62338;SDS011;48368;53.406;6.214;2022-11-20T06:44:57;15.57;;;8.68;;
62338;SDS011;48368;53.406;6.214;2022-11-20T06:47:23;15.77;;;8.75;;
62338;SDS011;48368;53.406;6.214;2022-11-20T06:49:48;14.73;;;8.55;;
62338;SDS011;48368;53.406;6.214;2022-11-20T06:52:14;15.90;;;8.70;;
62338;SDS011;48368;53.406;6.214;2022-11-20T06:54:40;15.98;;;8.25;;
62338;SDS011;48368;53.406;6.214;2022-11-20T06:57:05;16.15;;;8.75;;
62338;SDS011;48368;53.406;6.214;2022-11-20T06:59:31;15.48;;;8.90;;
62338;SDS011;48368;53.406;6.214;2022-11-20T07:01:56;13.18;;;8.18;;
62338;SDS011;48368;53.406;6.214;2022-11-20T07:04:22;19.20;;;9.43;;
62338;SDS011;48368;53.406;6.214;2022-11-20T07:06:48;19.75;;;11.10;;
62338;SDS011;48368;53.406;6.214;2022-11-20T07:09:14;19.50;;;12.02;;
62338;SDS011;48368;53.406;6.214;2022-11-20T07:11:40;15.38;;;9.43;;
62338;SDS011;48368;53.406;6.214;2022-11-20T07:14:05;13.15;;;8.05;;
62338;SDS011;48368;53.406;6.214;2022-11-20T07:16:31;16.55;;;8.88;;
62338;SDS011;48368;53.406;6.214;2022-11-20T07:18:57;14.18;;;8.63;;
62338;SDS011;48368;53.406;6.214;2022-11-20T07:21:22;14.50;;;8.48;;
62338;SDS011;48368;53.406;6.214;2022-11-20T07:23:48;14.50;;;8.60;;
62338;SDS011;48368;53.406;6.214;2022-11-20T07:26:14;14.85;;;8.68;;
62338;SDS011;48368;53.406;6.214;2022-11-20T07:28:39;15.18;;;8.75;;
62338;SDS011;48368;53.406;6.214;2022-11-20T07:31:05;13.38;;;8.00;;
62338;SDS011;48368;53.406;6.214;2022-11-20T07:33:34;16.02;;;8.85;;
62338;SDS011;48368;53.406;6.214;2022-11-20T07:36:00;16.02;;;8.52;;
62338;SDS011;48368;53.406;6.214;2022-11-20T07:38:26;12.95;;;7.68;;
62338;SDS011;48368;53.406;6.214;2022-11-20T07:40:55;15.45;;;8.18;;
62338;SDS011;48368;53.406;6.214;2022-11-20T07:43:22;15.10;;;8.52;;
62338;SDS011;48368;53.406;6.214;2022-11-20T07:45:49;12.50;;;8.30;;
62338;SDS011;48368;53.406;6.214;2022-11-20T07:48:14;13.65;;;8.20;;
62338;SDS011;48368;53.406;6.214;2022-11-20T07:50:40;14.48;;;8.07;;
62338;SDS011;48368;53.406;6.214;2022-11-20T07:53:06;14.35;;;8.73;;
62338;SDS011;48368;53.406;6.214;2022-11-20T07:55:32;14.48;;;8.48;;
62338;SDS011;48368;53.406;6.214;2022-11-20T07:57:58;13.27;;;7.97;;
62338;SDS011;48368;53.406;6.214;2022-11-20T08:00:24;16.70;;;8.73;;
62338;SDS011;48368;53.406;6.214;2022-11-20T08:02:54;15.40;;;9.10;;
62338;SDS011;48368;53.406;6.214;2022-11-20T08:05:19;14.75;;;8.23;;
62338;SDS011;48368;53.406;6.214;2022-11-20T08:07:45;17.17;;;9.25;;
62338;SDS011;48368;53.406;6.214;2022-11-20T08:10:12;16.63;;;8.93;;
62338;SDS011;48368;53.406;6.214;2022-11-20T08:12:49;13.40;;;7.07;;
62338;SDS011;48368;53.406;6.214;2022-11-20T08:15:34;12.93;;;7.93;;
62338;SDS011;48368;53.406;6.214;2022-11-20T08:18:01;15.45;;;8.18;;
62338;SDS011;48368;53.406;6.214;2022-11-20T08:20:28;13.48;;;8.23;;
62338;SDS011;48368;53.406;6.214;2022-11-20T08:22:57;14.57;;;8.20;;
62338;SDS011;48368;53.406;6.214;2022-11-20T08:25:26;12.07;;;8.00;;
62338;SDS011;48368;53.406;6.214;2022-11-20T08:27:53;13.90;;;8.20;;
62338;SDS011;48368;53.406;6.214;2022-11-20T08:30:21;13.32;;;8.00;;
62338;SDS011;48368;53.406;6.214;2022-11-20T08:32:47;13.32;;;7.82;;
62338;SDS011;48368;53.406;6.214;2022-11-20T08:35:12;15.73;;;8.68;;
62338;SDS011;48368;53.406;6.214;2022-11-20T08:37:38;13.10;;;8.55;;
62338;SDS011;48368;53.406;6.214;2022-11-20T08:40:07;13.95;;;8.00;;
62338;SDS011;48368;53.406;6.214;2022-11-20T08:42:35;14.15;;;8.40;;
62338;SDS011;48368;53.406;6.214;2022-11-20T08:45:00;15.25;;;8.50;;
62338;SDS011;48368;53.406;6.214;2022-11-20T08:47:26;16.60;;;9.25;;
62338;SDS011;48368;53.406;6.214;2022-11-20T08:49:52;16.25;;;8.90;;
62338;SDS011;48368;53.406;6.214;2022-11-20T08:52:18;14.85;;;8.95;;
62338;SDS011;48368;53.406;6.214;2022-11-20T08:54:43;16.20;;;9.40;;
62338;SDS011;48368;53.406;6.214;2022-11-20T08:57:09;15.52;;;8.65;;
62338;SDS011;48368;53.406;6.214;2022-11-20T08:59:34;12.52;;;8.32;;
62338;SDS011;48368;53.406;6.214;2022-11-20T09:02:00;16.77;;;11.00;;
62338;SDS011;48368;53.406;6.214;2022-11-20T09:04:26;22.88;;;17.58;;
62338;SDS011;48368;53.406;6.214;2022-11-20T09:06:51;19.30;;;11.82;;
62338;SDS011;48368;53.406;6.214;2022-11-20T09:09:17;17.00;;;11.45;;
62338;SDS011;48368;53.406;6.214;2022-11-20T09:11:43;15.55;;;8.77;;
62338;SDS011;48368;53.406;6.214;2022-11-20T09:14:09;15.25;;;9.02;;
62338;SDS011;48368;53.406;6.214;2022-11-20T09:16:35;14.80;;;10.05;;
62338;SDS011;48368;53.406;6.214;2022-11-20T09:19:01;15.80;;;9.10;;
62338;SDS011;48368;53.406;6.214;2022-11-20T09:21:26;14.43;;;8.32;;
62338;SDS011;48368;53.406;6.214;2022-11-20T09:23:52;14.10;;;8.45;;
62338;SDS011;48368;53.406;6.214;2022-11-20T09:26:18;15.75;;;8.95;;
62338;SDS011;48368;53.406;6.214;2022-11-20T09:28:44;17.35;;;9.02;;
62338;SDS011;48368;53.406;6.214;2022-11-20T09:31:22;14.85;;;9.85;;
62338;SDS011;48368;53.406;6.214;2022-11-20T09:33:49;14.77;;;7.57;;
62338;SDS011;48368;53.406;6.214;2022-11-20T09:36:15;13.38;;;7.78;;
62338;SDS011;48368;53.406;6.214;2022-11-20T09:38:43;13.88;;;8.07;;
62338;SDS011;48368;53.406;6.214;2022-11-20T09:49:58;13.50;;;7.65;;
62338;SDS011;48368;53.406;6.214;2022-11-20T09:52:49;14.10;;;8.05;;
62338;SDS011;48368;53.406;6.214;2022-11-20T09:55:33;14.45;;;8.02;;
62338;SDS011;48368;53.406;6.214;2022-11-20T09:58:01;12.82;;;7.68;;
62338;SDS011;48368;53.406;6.214;2022-11-20T10:00:30;12.00;;;6.80;;
62338;SDS011;48368;53.406;6.214;2022-11-20T10:05:42;12.93;;;7.80;;
62338;SDS011;48368;53.406;6.214;2022-11-20T10:08:21;11.35;;;7.55;;
62338;SDS011;48368;53.406;6.214;2022-11-20T10:30:23;14.10;;;8.40;;
62338;SDS011;48368;53.406;6.214;2022-11-20T10:35:48;14.63;;;8.88;;
62338;SDS011;48368;53.406;6.214;2022-11-20T10:38:16;12.30;;;8.07;;
62338;SDS011;48368;53.406;6.214;2022-11-20T10:41:00;12.18;;;7.82;;
62338;SDS011;48368;53.406;6.214;2022-11-20T10:43:46;15.48;;;9.57;;
62338;SDS011;48368;53.406;6.214;2022-11-20T10:46:16;13.82;;;8.38;;
62338;SDS011;48368;53.406;6.214;2022-11-20T10:48:47;12.52;;;8.13;;
62338;SDS011;48368;53.406;6.214;2022-11-20T10:51:30;13.32;;;8.73;;
62338;SDS011;48368;53.406;6.214;2022-11-20T10:56:34;15.05;;;9.35;;
62338;SDS011;48368;53.406;6.214;2022-11-20T10:59:14;14.30;;;8.68;;
62338;SDS011;48368;53.406;6.214;2022-11-20T11:01:52;15.23;;;8.77;;
62338;SDS011;48368;53.406;6.214;2022-11-20T11:04:38;14.93;;;9.35;;
62338;SDS011;48368;53.406;6.214;2022-11-20T11:07:14;14.45;;;9.15;;
62338;SDS011;48368;53.406;6.214;2022-11-20T11:09:49;18.92;;;11.90;;
62338;SDS011;48368;53.406;6.214;2022-11-20T11:12:17;15.57;;;10.20;;
62338;SDS011;48368;53.406;6.214;2022-11-20T11:14:48;18.33;;;12.75;;
62338;SDS011;48368;53.406;6.214;2022-11-20T11:17:32;22.48;;;12.10;;
62338;SDS011;48368;53.406;6.214;2022-11-20T11:20:15;15.98;;;9.35;;
62338;SDS011;48368;53.406;6.214;2022-11-20T11:25:18;18.23;;;10.20;;
62338;SDS011;48368;53.406;6.214;2022-11-20T11:28:19;18.20;;;11.27;;
62338;SDS011;48368;53.406;6.214;2022-11-20T11:30:46;20.77;;;10.82;;
62338;SDS011;48368;53.406;6.214;2022-11-20T11:33:24;14.73;;;9.18;;
62338;SDS011;48368;53.406;6.214;2022-11-20T11:35:55;20.52;;;11.23;;
62338;SDS011;48368;53.406;6.214;2022-11-20T11:38:36;24.40;;;13.25;;
62338;SDS011;48368;53.406;6.214;2022-11-20T11:41:05;18.85;;;10.85;;
62338;SDS011;48368;53.406;6.214;2022-11-20T11:43:33;28.63;;;15.00;;
62338;SDS011;48368;53.406;6.214;2022-11-20T11:48:57;18.08;;;10.27;;
62338;SDS011;48368;53.406;6.214;2022-11-20T11:54:37;16.98;;;9.60;;
62338;SDS011;48368;53.406;6.214;2022-11-20T11:57:14;12.07;;;7.18;;
62338;SDS011;48368;53.406;6.214;2022-11-20T12:02:24;12.55;;;7.85;;
62338;SDS011;48368;53.406;6.214;2022-11-20T12:05:13;12.85;;;8.10;;
62338;SDS011;48368;53.406;6.214;2022-11-20T12:15:44;13.00;;;5.90;;
62338;SDS011;48368;53.406;6.214;2022-11-20T12:18:16;9.38;;;5.85;;
62338;SDS011;48368;53.406;6.214;2022-11-20T12:20:53;8.13;;;4.80;;
62338;SDS011;48368;53.406;6.214;2022-11-20T12:26:22;8.85;;;4.82;;
62338;SDS011;48368;53.406;6.214;2022-11-20T12:28:59;11.38;;;5.68;;
62338;SDS011;48368;53.406;6.214;2022-11-20T12:31:37;7.82;;;4.75;;
62338;SDS011;48368;53.406;6.214;2022-11-20T12:39:49;8.32;;;4.97;;
62338;SDS011;48368;53.406;6.214;2022-11-20T12:42:24;7.60;;;4.85;;
62338;SDS011;48368;53.406;6.214;2022-11-20T12:52:00;8.77;;;5.60;;
62338;SDS011;48368;53.406;6.214;2022-11-20T12:59:43;9.48;;;5.15;;
62338;SDS011;48368;53.406;6.214;2022-11-20T13:03:09;7.97;;;4.22;;
62338;SDS011;48368;53.406;6.214;2022-11-20T13:07:39;8.65;;;5.18;;
62338;SDS011;48368;53.406;6.214;2022-11-20T13:10:11;10.07;;;5.85;;
62338;SDS011;48368;53.406;6.214;2022-11-20T13:12:44;10.05;;;6.25;;
62338;SDS011;48368;53.406;6.214;2022-11-20T13:18:03;9.05;;;5.20;;
62338;SDS011;48368;53.406;6.214;2022-11-20T13:20:33;9.63;;;4.80;;
62338;SDS011;48368;53.406;6.214;2022-11-20T13:23:00;9.50;;;4.75;;
62338;SDS011;48368;53.406;6.214;2022-11-20T13:27:57;12.85;;;4.85;;
62338;SDS011;48368;53.406;6.214;2022-11-20T13:30:50;7.60;;;4.05;;
62338;SDS011;48368;53.406;6.214;2022-11-20T13:33:27;7.32;;;4.28;;
62338;SDS011;48368;53.406;6.214;2022-11-20T13:35:57;9.23;;;5.63;;
62338;SDS011;48368;53.406;6.214;2022-11-20T13:38:25;8.15;;;5.15;;
62338;SDS011;48368;53.406;6.214;2022-11-20T13:40:53;8.45;;;4.22;;
62338;SDS011;48368;53.406;6.214;2022-11-20T13:43:27;8.45;;;4.85;;
62338;SDS011;48368;53.406;6.214;2022-11-20T13:46:03;8.85;;;4.50;;
62338;SDS011;48368;53.406;6.214;2022-11-20T13:48:31;7.28;;;4.68;;
62338;SDS011;48368;53.406;6.214;2022-11-20T13:58:52;10.30;;;6.22;;
62338;SDS011;48368;53.406;6.214;2022-11-20T14:01:24;8.93;;;4.90;;
62338;SDS011;48368;53.406;6.214;2022-11-20T14:03:56;6.85;;;4.45;;
62338;SDS011;48368;53.406;6.214;2022-11-20T14:06:32;9.18;;;4.90;;
62338;SDS011;48368;53.406;6.214;2022-11-20T14:09:03;8.38;;;4.82;;
62338;SDS011;48368;53.406;6.214;2022-11-20T14:11:29;9.68;;;5.72;;
62338;SDS011;48368;53.406;6.214;2022-11-20T14:16:26;10.60;;;4.90;;
62338;SDS011;48368;53.406;6.214;2022-11-20T14:18:54;9.55;;;4.90;;
62338;SDS011;48368;53.406;6.214;2022-11-20T14:21:22;9.45;;;6.10;;
62338;SDS011;48368;53.406;6.214;2022-11-20T14:23:52;7.82;;;5.18;;
62338;SDS011;48368;53.406;6.214;2022-11-20T14:26:19;11.43;;;6.07;;
62338;SDS011;48368;53.406;6.214;2022-11-20T14:28:47;13.88;;;7.60;;
62338;SDS011;48368;53.406;6.214;2022-11-20T14:31:21;14.93;;;7.78;;
62338;SDS011;48368;53.406;6.214;2022-11-20T14:33:50;8.55;;;4.88;;
62338;SDS011;48368;53.406;6.214;2022-11-20T14:36:18;10.75;;;6.18;;
62338;SDS011;48368;53.406;6.214;2022-11-20T14:38:46;10.55;;;6.45;;
62338;SDS011;48368;53.406;6.214;2022-11-20T14:41:19;11.43;;;6.65;;
62338;SDS011;48368;53.406;6.214;2022-11-20T14:43:51;11.00;;;6.43;;
62338;SDS011;48368;53.406;6.214;2022-11-20T14:46:21;9.65;;;5.47;;
62338;SDS011;48368;53.406;6.214;2022-11-20T14:48:48;9.38;;;5.35;;
62338;SDS011;48368;53.406;6.214;2022-11-20T14:54:17;11.65;;;5.88;;
62338;SDS011;48368;53.406;6.214;2022-11-20T14:57:00;10.25;;;5.40;;
62338;SDS011;48368;53.406;6.214;2022-11-20T14:59:28;11.80;;;6.90;;
62338;SDS011;48368;53.406;6.214;2022-11-20T15:04:31;8.63;;;5.13;;
62338;SDS011;48368;53.406;6.214;2022-11-20T15:06:58;8.98;;;5.20;;
62338;SDS011;48368;53.406;6.214;2022-11-20T15:09:25;8.93;;;5.57;;
62338;SDS011;48368;53.406;6.214;2022-11-20T15:11:55;9.15;;;5.53;;
62338;SDS011;48368;53.406;6.214;2022-11-20T15:14:26;8.88;;;6.13;;
62338;SDS011;48368;53.406;6.214;2022-11-20T15:16:53;11.40;;;6.03;;
62338;SDS011;48368;53.406;6.214;2022-11-20T15:19:23;10.10;;;6.07;;
62338;SDS011;48368;53.406;6.214;2022-11-20T15:21:50;10.85;;;6.68;;
62338;SDS011;48368;53.406;6.214;2022-11-20T15:24:16;9.90;;;6.22;;
62338;SDS011;48368;53.406;6.214;2022-11-20T15:26:42;12.45;;;5.97;;
62338;SDS011;48368;53.406;6.214;2022-11-20T15:29:12;12.57;;;6.85;;
62338;SDS011;48368;53.406;6.214;2022-11-20T15:31:39;10.93;;;6.32;;
62338;SDS011;48368;53.406;6.214;2022-11-20T15:34:11;9.45;;;5.60;;
62338;SDS011;48368;53.406;6.214;2022-11-20T15:36:38;13.50;;;7.03;;
62338;SDS011;48368;53.406;6.214;2022-11-20T15:39:05;16.17;;;8.68;;
62338;SDS011;48368;53.406;6.214;2022-11-20T15:41:34;17.80;;;9.18;;
62338;SDS011;48368;53.406;6.214;2022-11-20T15:44:01;28.80;;;12.27;;
62338;SDS011;48368;53.406;6.214;2022-11-20T15:46:28;36.20;;;15.20;;
62338;SDS011;48368;53.406;6.214;2022-11-20T15:48:59;32.58;;;15.25;;
62338;SDS011;48368;53.406;6.214;2022-11-20T15:51:29;59.47;;;25.75;;
62338;SDS011;48368;53.406;6.214;2022-11-20T15:53:58;27.02;;;13.77;;
62338;SDS011;48368;53.406;6.214;2022-11-20T15:56:24;22.58;;;13.20;;
62338;SDS011;48368;53.406;6.214;2022-11-20T15:58:50;15.35;;;10.68;;
62338;SDS011;48368;53.406;6.214;2022-11-20T16:01:17;13.32;;;8.32;;
62338;SDS011;48368;53.406;6.214;2022-11-20T16:03:44;19.05;;;9.20;;
62338;SDS011;48368;53.406;6.214;2022-11-20T16:06:10;15.38;;;9.02;;
62338;SDS011;48368;53.406;6.214;2022-11-20T16:08:35;26.83;;;14.02;;
62338;SDS011;48368;53.406;6.214;2022-11-20T16:11:01;24.00;;;14.35;;
62338;SDS011;48368;53.406;6.214;2022-11-20T16:13:27;13.00;;;7.78;;
62338;SDS011;48368;53.406;6.214;2022-11-20T16:16:21;12.20;;;7.72;;
62338;SDS011;48368;53.406;6.214;2022-11-20T16:18:49;13.77;;;7.57;;
62338;SDS011;48368;53.406;6.214;2022-11-20T16:21:15;13.82;;;6.70;;
62338;SDS011;48368;53.406;6.214;2022-11-20T16:23:41;11.27;;;6.40;;
62338;SDS011;48368;53.406;6.214;2022-11-20T16:26:14;12.48;;;6.68;;
62338;SDS011;48368;53.406;6.214;2022-11-20T16:28:42;13.82;;;8.18;;
62338;SDS011;48368;53.406;6.214;2022-11-20T16:31:12;13.50;;;7.22;;
62338;SDS011;48368;53.406;6.214;2022-11-20T16:33:39;13.88;;;7.90;;